sensor_id;sensor_type;location;lat;lon;timestamp;P1;durP1;ratioP1;P2;durP2;ratioP2
6412;SDS011;3239;48.714;9.472;2023-04-07T00:01:01;4.20;;;3.50;;
6412;SDS011;3239;48.714;9.472;2023-04-07T00:03:27;4.97;;;4.10;;
6412;SDS011;3239;48.714;9.472;2023-04-07T00:05:53;6.77;;;5.03;;
6412;SDS011;3239;48.714;9.472;2023-04-07T00:08:19;4.80;;;4.10;;
6412;SDS011;3239;48.714;9.472;2023-04-07T00:10:45;4.80;;;3.90;;
6412;SDS011;3239;48.714;9.472;2023-04-07T00:13:11;7.63;;;4.70;;
6412;SDS011;3239;48.714;9.472;2023-04-07T00:15:36;5.43;;;4.70;;
6412;SDS011;3239;48.714;9.472;2023-04-07T00:18:02;6.63;;;4.80;;
6412;SDS011;3239;48.714;9.472;2023-04-07T00:20:28;5.53;;;4.10;;
6412;SDS011;3239;48.714;9.472;2023-04-07T00:22:54;5.07;;;4.63;;
6412;SDS011;3239;48.714;9.472;2023-04-07T00:25:19;5.20;;;4.70;;
6412;SDS011;3239;48.714;9.472;2023-04-07T00:27:45;6.50;;;4.73;;
6412;SDS011;3239;48.714;9.472;2023-04-07T00:30:11;4.93;;;4.43;;
6412;SDS011;3239;48.714;9.472;2023-04-07T00:32:37;5.50;;;5.00;;
6412;SDS011;3239;48.714;9.472;2023-04-07T00:35:02;4.93;;;4.03;;
6412;SDS011;3239;48.714;9.472;2023-04-07T00:37:29;10.30;;;5.03;;
6412;SDS011;3239;48.714;9.472;2023-04-07T00:39:54;4.40;;;4.00;;
6412;SDS011;3239;48.714;9.472;2023-04-07T00:42:21;6.43;;;5.27;;
6412;SDS011;3239;48.714;9.472;2023-04-07T00:44:47;5.50;;;4.43;;
6412;SDS011;3239;48.714;9.472;2023-04-07T00:47:13;6.00;;;4.73;;
6412;SDS011;3239;48.714;9.472;2023-04-07T00:49:39;5.83;;;5.10;;
6412;SDS011;3239;48.714;9.472;2023-04-07T00:52:05;5.80;;;5.20;;
6412;SDS011;3239;48.714;9.472;2023-04-07T00:54:32;5.20;;;4.70;;
6412;SDS011;3239;48.714;9.472;2023-04-07T00:56:57;7.37;;;5.37;;
6412;SDS011;3239;48.714;9.472;2023-04-07T00:59:23;6.17;;;5.40;;
6412;SDS011;3239;48.714;9.472;2023-04-07T01:01:52;6.73;;;5.00;;
6412;SDS011;3239;48.714;9.472;2023-04-07T01:04:42;6.10;;;5.50;;
6412;SDS011;3239;48.714;9.472;2023-04-07T01:07:14;6.00;;;5.20;;
6412;SDS011;3239;48.714;9.472;2023-04-07T01:09:49;6.27;;;5.63;;
6412;SDS011;3239;48.714;9.472;2023-04-07T01:12:40;6.00;;;5.27;;
6412;SDS011;3239;48.714;9.472;2023-04-07T01:15:29;5.80;;;5.20;;
6412;SDS011;3239;48.714;9.472;2023-04-07T01:18:05;5.33;;;4.83;;
6412;SDS011;3239;48.714;9.472;2023-04-07T01:20:44;6.43;;;5.23;;
6412;SDS011;3239;48.714;9.472;2023-04-07T01:23:16;7.07;;;6.00;;
6412;SDS011;3239;48.714;9.472;2023-04-07T01:26:03;9.40;;;6.07;;
6412;SDS011;3239;48.714;9.472;2023-04-07T01:28:56;9.77;;;5.50;;
6412;SDS011;3239;48.714;9.472;2023-04-07T01:31:47;7.67;;;5.30;;
6412;SDS011;3239;48.714;9.472;2023-04-07T01:34:15;7.43;;;5.93;;
6412;SDS011;3239;48.714;9.472;2023-04-07T01:36:42;6.77;;;5.93;;
6412;SDS011;3239;48.714;9.472;2023-04-07T01:39:09;8.73;;;6.57;;
6412;SDS011;3239;48.714;9.472;2023-04-07T01:41:36;7.93;;;6.00;;
6412;SDS011;3239;48.714;9.472;2023-04-07T01:44:03;7.60;;;6.80;;
6412;SDS011;3239;48.714;9.472;2023-04-07T01:46:32;8.23;;;6.43;;
6412;SDS011;3239;48.714;9.472;2023-04-07T01:48:58;8.30;;;6.83;;
6412;SDS011;3239;48.714;9.472;2023-04-07T01:51:25;7.63;;;5.90;;
6412;SDS011;3239;48.714;9.472;2023-04-07T01:53:52;10.17;;;7.60;;
6412;SDS011;3239;48.714;9.472;2023-04-07T01:56:19;8.83;;;6.40;;
6412;SDS011;3239;48.714;9.472;2023-04-07T01:58:45;7.77;;;6.30;;
6412;SDS011;3239;48.714;9.472;2023-04-07T02:01:10;8.33;;;6.47;;
6412;SDS011;3239;48.714;9.472;2023-04-07T02:06:17;11.07;;;7.43;;
6412;SDS011;3239;48.714;9.472;2023-04-07T02:08:50;9.97;;;6.80;;
6412;SDS011;3239;48.714;9.472;2023-04-07T02:11:21;9.03;;;7.10;;
6412;SDS011;3239;48.714;9.472;2023-04-07T02:13:48;9.33;;;6.90;;
6412;SDS011;3239;48.714;9.472;2023-04-07T02:16:18;8.40;;;7.10;;
6412;SDS011;3239;48.714;9.472;2023-04-07T02:18:45;10.10;;;7.57;;
6412;SDS011;3239;48.714;9.472;2023-04-07T02:21:12;9.43;;;7.93;;
6412;SDS011;3239;48.714;9.472;2023-04-07T02:23:39;11.40;;;8.57;;
6412;SDS011;3239;48.714;9.472;2023-04-07T02:26:05;9.00;;;7.70;;
6412;SDS011;3239;48.714;9.472;2023-04-07T02:28:31;10.23;;;7.90;;
6412;SDS011;3239;48.714;9.472;2023-04-07T02:30:57;11.03;;;7.60;;
6412;SDS011;3239;48.714;9.472;2023-04-07T02:33:23;11.20;;;8.80;;
6412;SDS011;3239;48.714;9.472;2023-04-07T02:35:48;8.87;;;7.90;;
6412;SDS011;3239;48.714;9.472;2023-04-07T02:38:14;10.07;;;7.70;;
6412;SDS011;3239;48.714;9.472;2023-04-07T02:40:40;8.57;;;7.13;;
6412;SDS011;3239;48.714;9.472;2023-04-07T02:43:06;9.60;;;8.27;;
6412;SDS011;3239;48.714;9.472;2023-04-07T02:45:31;9.70;;;7.90;;
6412;SDS011;3239;48.714;9.472;2023-04-07T02:47:57;13.50;;;7.77;;
6412;SDS011;3239;48.714;9.472;2023-04-07T02:50:23;10.70;;;7.60;;
6412;SDS011;3239;48.714;9.472;2023-04-07T02:52:50;8.47;;;7.53;;
6412;SDS011;3239;48.714;9.472;2023-04-07T02:55:15;9.40;;;8.33;;
6412;SDS011;3239;48.714;9.472;2023-04-07T02:57:42;12.00;;;8.07;;
6412;SDS011;3239;48.714;9.472;2023-04-07T03:00:08;10.10;;;7.30;;
6412;SDS011;3239;48.714;9.472;2023-04-07T03:02:35;8.60;;;7.67;;
6412;SDS011;3239;48.714;9.472;2023-04-07T03:05:00;8.43;;;7.63;;
6412;SDS011;3239;48.714;9.472;2023-04-07T03:07:28;9.37;;;7.53;;
6412;SDS011;3239;48.714;9.472;2023-04-07T03:09:55;10.20;;;7.43;;
6412;SDS011;3239;48.714;9.472;2023-04-07T03:12:21;10.80;;;7.77;;
6412;SDS011;3239;48.714;9.472;2023-04-07T03:14:47;11.80;;;7.90;;
6412;SDS011;3239;48.714;9.472;2023-04-07T03:17:13;10.47;;;8.50;;
6412;SDS011;3239;48.714;9.472;2023-04-07T03:19:38;14.90;;;8.20;;
6412;SDS011;3239;48.714;9.472;2023-04-07T03:22:04;10.50;;;7.97;;
6412;SDS011;3239;48.714;9.472;2023-04-07T03:24:30;8.47;;;7.60;;
6412;SDS011;3239;48.714;9.472;2023-04-07T03:26:55;8.93;;;7.90;;
6412;SDS011;3239;48.714;9.472;2023-04-07T03:29:21;7.93;;;7.10;;
6412;SDS011;3239;48.714;9.472;2023-04-07T03:31:47;9.63;;;7.70;;
6412;SDS011;3239;48.714;9.472;2023-04-07T03:34:13;8.43;;;6.93;;
6412;SDS011;3239;48.714;9.472;2023-04-07T03:36:39;11.03;;;7.10;;
6412;SDS011;3239;48.714;9.472;2023-04-07T03:39:05;11.57;;;7.60;;
6412;SDS011;3239;48.714;9.472;2023-04-07T03:41:30;8.73;;;7.53;;
6412;SDS011;3239;48.714;9.472;2023-04-07T03:43:56;10.17;;;8.27;;
6412;SDS011;3239;48.714;9.472;2023-04-07T03:46:22;11.50;;;9.07;;
6412;SDS011;3239;48.714;9.472;2023-04-07T03:48:50;12.20;;;8.60;;
6412;SDS011;3239;48.714;9.472;2023-04-07T03:51:16;10.70;;;8.83;;
6412;SDS011;3239;48.714;9.472;2023-04-07T03:53:42;11.23;;;8.13;;
6412;SDS011;3239;48.714;9.472;2023-04-07T03:56:08;13.20;;;9.50;;
6412;SDS011;3239;48.714;9.472;2023-04-07T03:58:34;12.53;;;9.53;;
6412;SDS011;3239;48.714;9.472;2023-04-07T04:01:00;11.70;;;9.10;;
6412;SDS011;3239;48.714;9.472;2023-04-07T04:03:26;14.30;;;9.93;;
6412;SDS011;3239;48.714;9.472;2023-04-07T04:05:52;12.90;;;9.70;;
6412;SDS011;3239;48.714;9.472;2023-04-07T04:08:18;14.40;;;10.00;;
6412;SDS011;3239;48.714;9.472;2023-04-07T04:10:44;14.07;;;9.87;;
6412;SDS011;3239;48.714;9.472;2023-04-07T04:13:10;11.23;;;9.30;;
6412;SDS011;3239;48.714;9.472;2023-04-07T04:15:36;12.37;;;9.23;;
6412;SDS011;3239;48.714;9.472;2023-04-07T04:18:02;11.10;;;9.00;;
6412;SDS011;3239;48.714;9.472;2023-04-07T04:20:27;14.40;;;10.90;;
6412;SDS011;3239;48.714;9.472;2023-04-07T04:22:53;12.10;;;9.83;;
6412;SDS011;3239;48.714;9.472;2023-04-07T04:25:19;15.90;;;10.13;;
6412;SDS011;3239;48.714;9.472;2023-04-07T04:27:45;13.50;;;10.13;;
6412;SDS011;3239;48.714;9.472;2023-04-07T04:30:10;13.03;;;9.40;;
6412;SDS011;3239;48.714;9.472;2023-04-07T04:32:36;12.80;;;10.10;;
6412;SDS011;3239;48.714;9.472;2023-04-07T04:35:03;16.50;;;10.47;;
6412;SDS011;3239;48.714;9.472;2023-04-07T04:37:30;13.03;;;9.87;;
6412;SDS011;3239;48.714;9.472;2023-04-07T04:39:56;15.20;;;9.70;;
6412;SDS011;3239;48.714;9.472;2023-04-07T04:42:22;14.07;;;9.93;;
6412;SDS011;3239;48.714;9.472;2023-04-07T04:44:47;13.73;;;10.33;;
6412;SDS011;3239;48.714;9.472;2023-04-07T04:47:13;10.50;;;9.03;;
6412;SDS011;3239;48.714;9.472;2023-04-07T04:49:39;15.23;;;10.73;;
6412;SDS011;3239;48.714;9.472;2023-04-07T04:52:05;12.17;;;9.70;;
6412;SDS011;3239;48.714;9.472;2023-04-07T04:54:31;18.93;;;11.10;;
6412;SDS011;3239;48.714;9.472;2023-04-07T04:56:57;15.80;;;12.17;;
6412;SDS011;3239;48.714;9.472;2023-04-07T04:59:22;16.00;;;10.63;;
6412;SDS011;3239;48.714;9.472;2023-04-07T05:01:48;14.47;;;10.10;;
6412;SDS011;3239;48.714;9.472;2023-04-07T05:04:14;12.53;;;10.20;;
6412;SDS011;3239;48.714;9.472;2023-04-07T05:06:40;13.47;;;10.63;;
6412;SDS011;3239;48.714;9.472;2023-04-07T05:09:06;12.97;;;10.70;;
6412;SDS011;3239;48.714;9.472;2023-04-07T05:11:32;16.50;;;11.00;;
6412;SDS011;3239;48.714;9.472;2023-04-07T05:13:57;14.93;;;10.80;;
6412;SDS011;3239;48.714;9.472;2023-04-07T05:16:23;15.20;;;10.47;;
6412;SDS011;3239;48.714;9.472;2023-04-07T05:18:49;17.73;;;11.70;;
6412;SDS011;3239;48.714;9.472;2023-04-07T05:21:15;14.70;;;10.90;;
6412;SDS011;3239;48.714;9.472;2023-04-07T05:23:40;15.63;;;10.80;;
6412;SDS011;3239;48.714;9.472;2023-04-07T05:26:06;17.13;;;12.40;;
6412;SDS011;3239;48.714;9.472;2023-04-07T05:28:32;16.30;;;11.03;;
6412;SDS011;3239;48.714;9.472;2023-04-07T05:30:58;14.97;;;10.97;;
6412;SDS011;3239;48.714;9.472;2023-04-07T05:33:25;16.40;;;11.77;;
6412;SDS011;3239;48.714;9.472;2023-04-07T05:35:51;17.23;;;11.90;;
6412;SDS011;3239;48.714;9.472;2023-04-07T05:38:16;15.13;;;11.30;;
6412;SDS011;3239;48.714;9.472;2023-04-07T05:40:42;15.13;;;11.80;;
6412;SDS011;3239;48.714;9.472;2023-04-07T05:43:08;16.73;;;12.27;;
6412;SDS011;3239;48.714;9.472;2023-04-07T05:45:33;18.70;;;13.43;;
6412;SDS011;3239;48.714;9.472;2023-04-07T05:47:59;16.40;;;12.23;;
6412;SDS011;3239;48.714;9.472;2023-04-07T05:50:25;13.67;;;10.93;;
6412;SDS011;3239;48.714;9.472;2023-04-07T05:52:50;16.27;;;10.83;;
6412;SDS011;3239;48.714;9.472;2023-04-07T05:55:16;15.97;;;11.37;;
6412;SDS011;3239;48.714;9.472;2023-04-07T05:57:42;15.70;;;12.20;;
6412;SDS011;3239;48.714;9.472;2023-04-07T06:00:08;21.47;;;13.80;;
6412;SDS011;3239;48.714;9.472;2023-04-07T06:02:34;19.73;;;13.10;;
6412;SDS011;3239;48.714;9.472;2023-04-07T06:05:01;17.43;;;12.00;;
6412;SDS011;3239;48.714;9.472;2023-04-07T06:07:26;16.60;;;12.30;;
6412;SDS011;3239;48.714;9.472;2023-04-07T06:09:52;23.20;;;13.87;;
6412;SDS011;3239;48.714;9.472;2023-04-07T06:12:18;20.10;;;13.30;;
6412;SDS011;3239;48.714;9.472;2023-04-07T06:14:45;17.27;;;12.47;;
6412;SDS011;3239;48.714;9.472;2023-04-07T06:17:16;16.30;;;12.00;;
6412;SDS011;3239;48.714;9.472;2023-04-07T06:19:42;18.30;;;12.80;;
6412;SDS011;3239;48.714;9.472;2023-04-07T06:22:08;15.67;;;11.93;;
6412;SDS011;3239;48.714;9.472;2023-04-07T06:24:35;15.57;;;11.90;;
6412;SDS011;3239;48.714;9.472;2023-04-07T06:27:01;15.17;;;11.30;;
6412;SDS011;3239;48.714;9.472;2023-04-07T06:29:28;14.37;;;11.43;;
6412;SDS011;3239;48.714;9.472;2023-04-07T06:31:54;17.23;;;11.47;;
6412;SDS011;3239;48.714;9.472;2023-04-07T06:34:20;14.23;;;11.40;;
6412;SDS011;3239;48.714;9.472;2023-04-07T06:36:46;17.27;;;11.73;;
6412;SDS011;3239;48.714;9.472;2023-04-07T06:39:12;14.30;;;11.40;;
6412;SDS011;3239;48.714;9.472;2023-04-07T06:41:37;13.67;;;10.80;;
6412;SDS011;3239;48.714;9.472;2023-04-07T06:44:06;14.00;;;10.47;;
6412;SDS011;3239;48.714;9.472;2023-04-07T06:46:35;13.17;;;10.87;;
6412;SDS011;3239;48.714;9.472;2023-04-07T06:49:01;12.70;;;10.47;;
6412;SDS011;3239;48.714;9.472;2023-04-07T06:51:27;15.23;;;10.70;;
6412;SDS011;3239;48.714;9.472;2023-04-07T06:53:54;14.90;;;10.90;;
6412;SDS011;3239;48.714;9.472;2023-04-07T06:56:21;15.50;;;11.10;;
6412;SDS011;3239;48.714;9.472;2023-04-07T06:58:47;15.43;;;9.93;;
6412;SDS011;3239;48.714;9.472;2023-04-07T07:01:13;14.93;;;10.43;;
6412;SDS011;3239;48.714;9.472;2023-04-07T07:03:39;14.80;;;10.67;;
6412;SDS011;3239;48.714;9.472;2023-04-07T07:06:05;11.20;;;9.73;;
6412;SDS011;3239;48.714;9.472;2023-04-07T07:08:31;13.90;;;9.93;;
6412;SDS011;3239;48.714;9.472;2023-04-07T07:10:57;12.83;;;10.00;;
6412;SDS011;3239;48.714;9.472;2023-04-07T07:13:23;15.40;;;10.37;;
6412;SDS011;3239;48.714;9.472;2023-04-07T07:15:50;12.53;;;10.70;;
6412;SDS011;3239;48.714;9.472;2023-04-07T07:18:17;11.70;;;9.43;;
6412;SDS011;3239;48.714;9.472;2023-04-07T07:20:43;13.90;;;11.67;;
6412;SDS011;3239;48.714;9.472;2023-04-07T07:23:09;11.77;;;9.63;;
6412;SDS011;3239;48.714;9.472;2023-04-07T07:25:34;12.20;;;10.43;;
6412;SDS011;3239;48.714;9.472;2023-04-07T07:28:00;13.30;;;10.63;;
6412;SDS011;3239;48.714;9.472;2023-04-07T07:30:26;13.83;;;10.03;;
6412;SDS011;3239;48.714;9.472;2023-04-07T07:32:52;12.63;;;10.80;;
6412;SDS011;3239;48.714;9.472;2023-04-07T07:35:19;13.87;;;9.47;;
6412;SDS011;3239;48.714;9.472;2023-04-07T07:37:45;10.40;;;8.73;;
6412;SDS011;3239;48.714;9.472;2023-04-07T07:40:11;10.00;;;8.00;;
6412;SDS011;3239;48.714;9.472;2023-04-07T07:42:37;10.93;;;7.93;;
6412;SDS011;3239;48.714;9.472;2023-04-07T07:45:04;10.63;;;7.80;;
6412;SDS011;3239;48.714;9.472;2023-04-07T07:47:30;11.57;;;8.50;;
6412;SDS011;3239;48.714;9.472;2023-04-07T07:49:55;8.67;;;7.63;;
6412;SDS011;3239;48.714;9.472;2023-04-07T07:52:21;10.17;;;7.73;;
6412;SDS011;3239;48.714;9.472;2023-04-07T07:54:48;7.70;;;6.90;;
6412;SDS011;3239;48.714;9.472;2023-04-07T07:57:15;8.13;;;6.70;;
6412;SDS011;3239;48.714;9.472;2023-04-07T07:59:41;7.73;;;6.40;;
6412;SDS011;3239;48.714;9.472;2023-04-07T08:02:07;6.40;;;5.50;;
6412;SDS011;3239;48.714;9.472;2023-04-07T08:04:33;7.80;;;5.40;;
6412;SDS011;3239;48.714;9.472;2023-04-07T08:07:00;7.63;;;6.80;;
6412;SDS011;3239;48.714;9.472;2023-04-07T08:09:27;8.00;;;6.67;;
6412;SDS011;3239;48.714;9.472;2023-04-07T08:11:52;8.77;;;7.37;;
6412;SDS011;3239;48.714;9.472;2023-04-07T08:14:18;6.67;;;6.00;;
6412;SDS011;3239;48.714;9.472;2023-04-07T08:16:44;7.43;;;6.63;;
6412;SDS011;3239;48.714;9.472;2023-04-07T08:19:11;7.00;;;6.30;;
6412;SDS011;3239;48.714;9.472;2023-04-07T08:21:37;7.57;;;6.77;;
6412;SDS011;3239;48.714;9.472;2023-04-07T08:24:04;6.77;;;6.17;;
6412;SDS011;3239;48.714;9.472;2023-04-07T08:26:31;7.27;;;6.07;;
6412;SDS011;3239;48.714;9.472;2023-04-07T08:28:57;8.93;;;7.40;;
6412;SDS011;3239;48.714;9.472;2023-04-07T08:31:23;6.93;;;6.23;;
6412;SDS011;3239;48.714;9.472;2023-04-07T08:33:49;6.50;;;5.90;;
6412;SDS011;3239;48.714;9.472;2023-04-07T08:36:18;7.67;;;5.40;;
6412;SDS011;3239;48.714;9.472;2023-04-07T08:38:45;6.40;;;5.80;;
6412;SDS011;3239;48.714;9.472;2023-04-07T08:41:11;6.77;;;6.07;;
6412;SDS011;3239;48.714;9.472;2023-04-07T08:43:56;6.50;;;5.70;;
6412;SDS011;3239;48.714;9.472;2023-04-07T08:46:24;7.23;;;5.83;;
6412;SDS011;3239;48.714;9.472;2023-04-07T08:48:51;6.60;;;6.00;;
6412;SDS011;3239;48.714;9.472;2023-04-07T08:51:27;5.73;;;5.23;;
6412;SDS011;3239;48.714;9.472;2023-04-07T08:54:07;6.83;;;5.43;;
6412;SDS011;3239;48.714;9.472;2023-04-07T08:56:37;7.67;;;6.00;;
6412;SDS011;3239;48.714;9.472;2023-04-07T08:59:05;7.63;;;6.10;;
6412;SDS011;3239;48.714;9.472;2023-04-07T09:01:36;5.00;;;4.37;;
6412;SDS011;3239;48.714;9.472;2023-04-07T09:04:04;6.53;;;5.57;;
6412;SDS011;3239;48.714;9.472;2023-04-07T09:06:32;5.70;;;5.20;;
6412;SDS011;3239;48.714;9.472;2023-04-07T09:08:59;6.90;;;5.03;;
6412;SDS011;3239;48.714;9.472;2023-04-07T09:11:27;6.70;;;5.20;;
6412;SDS011;3239;48.714;9.472;2023-04-07T09:13:53;7.20;;;5.80;;
6412;SDS011;3239;48.714;9.472;2023-04-07T09:16:20;7.00;;;5.30;;
6412;SDS011;3239;48.714;9.472;2023-04-07T09:18:47;6.03;;;4.97;;
6412;SDS011;3239;48.714;9.472;2023-04-07T09:21:13;7.83;;;4.90;;
6412;SDS011;3239;48.714;9.472;2023-04-07T09:23:40;9.20;;;5.30;;
6412;SDS011;3239;48.714;9.472;2023-04-07T09:28:53;6.13;;;5.10;;
6412;SDS011;3239;48.714;9.472;2023-04-07T09:31:22;9.73;;;4.93;;
6412;SDS011;3239;48.714;9.472;2023-04-07T09:34:28;6.30;;;5.73;;
6412;SDS011;3239;48.714;9.472;2023-04-07T09:37:00;8.27;;;6.60;;
6412;SDS011;3239;48.714;9.472;2023-04-07T09:39:27;8.03;;;6.47;;
6412;SDS011;3239;48.714;9.472;2023-04-07T09:41:53;7.70;;;6.67;;
6412;SDS011;3239;48.714;9.472;2023-04-07T09:44:19;6.60;;;5.17;;
6412;SDS011;3239;48.714;9.472;2023-04-07T09:46:47;8.27;;;4.90;;
6412;SDS011;3239;48.714;9.472;2023-04-07T09:49:21;7.30;;;6.00;;
6412;SDS011;3239;48.714;9.472;2023-04-07T09:51:54;7.00;;;5.20;;
6412;SDS011;3239;48.714;9.472;2023-04-07T09:54:39;6.27;;;5.53;;
6412;SDS011;3239;48.714;9.472;2023-04-07T09:57:09;4.30;;;3.63;;
6412;SDS011;3239;48.714;9.472;2023-04-07T09:59:37;4.30;;;3.67;;
6412;SDS011;3239;48.714;9.472;2023-04-07T10:02:06;8.00;;;3.53;;
6412;SDS011;3239;48.714;9.472;2023-04-07T10:04:33;5.40;;;4.37;;
6412;SDS011;3239;48.714;9.472;2023-04-07T10:06:58;3.87;;;3.53;;
6412;SDS011;3239;48.714;9.472;2023-04-07T10:09:28;4.53;;;3.57;;
6412;SDS011;3239;48.714;9.472;2023-04-07T10:11:55;6.60;;;4.67;;
6412;SDS011;3239;48.714;9.472;2023-04-07T10:14:27;7.70;;;4.30;;
6412;SDS011;3239;48.714;9.472;2023-04-07T10:16:55;4.20;;;3.40;;
6412;SDS011;3239;48.714;9.472;2023-04-07T10:19:24;4.17;;;3.30;;
6412;SDS011;3239;48.714;9.472;2023-04-07T10:21:53;5.10;;;3.60;;
6412;SDS011;3239;48.714;9.472;2023-04-07T10:27:15;5.17;;;3.50;;
6412;SDS011;3239;48.714;9.472;2023-04-07T10:29:47;3.93;;;3.30;;
6412;SDS011;3239;48.714;9.472;2023-04-07T10:32:15;4.40;;;2.83;;
6412;SDS011;3239;48.714;9.472;2023-04-07T10:37:19;5.27;;;3.17;;
6412;SDS011;3239;48.714;9.472;2023-04-07T10:39:50;5.37;;;3.17;;
6412;SDS011;3239;48.714;9.472;2023-04-07T10:45:05;2.90;;;2.37;;
6412;SDS011;3239;48.714;9.472;2023-04-07T10:47:33;6.00;;;3.20;;
6412;SDS011;3239;48.714;9.472;2023-04-07T10:50:20;3.60;;;3.07;;
6412;SDS011;3239;48.714;9.472;2023-04-07T10:52:48;4.13;;;3.63;;
6412;SDS011;3239;48.714;9.472;2023-04-07T10:55:37;3.60;;;3.30;;
6412;SDS011;3239;48.714;9.472;2023-04-07T11:03:32;4.90;;;3.20;;
6412;SDS011;3239;48.714;9.472;2023-04-07T11:06:12;7.73;;;3.50;;
6412;SDS011;3239;48.714;9.472;2023-04-07T11:08:42;4.17;;;3.17;;
6412;SDS011;3239;48.714;9.472;2023-04-07T11:11:11;7.83;;;4.23;;
6412;SDS011;3239;48.714;9.472;2023-04-07T11:13:39;5.33;;;3.90;;
6412;SDS011;3239;48.714;9.472;2023-04-07T11:16:08;3.97;;;3.43;;
6412;SDS011;3239;48.714;9.472;2023-04-07T11:18:35;5.57;;;3.20;;
6412;SDS011;3239;48.714;9.472;2023-04-07T11:21:02;5.90;;;3.50;;
6412;SDS011;3239;48.714;9.472;2023-04-07T11:23:42;3.43;;;3.13;;
6412;SDS011;3239;48.714;9.472;2023-04-07T11:26:11;4.23;;;3.00;;
6412;SDS011;3239;48.714;9.472;2023-04-07T11:28:48;9.43;;;4.23;;
6412;SDS011;3239;48.714;9.472;2023-04-07T11:31:27;8.13;;;3.40;;
6412;SDS011;3239;48.714;9.472;2023-04-07T11:33:59;6.27;;;3.30;;
6412;SDS011;3239;48.714;9.472;2023-04-07T11:39:16;5.37;;;4.23;;
6412;SDS011;3239;48.714;9.472;2023-04-07T11:41:45;5.53;;;3.17;;
6412;SDS011;3239;48.714;9.472;2023-04-07T11:44:13;7.47;;;3.63;;
6412;SDS011;3239;48.714;9.472;2023-04-07T11:46:52;15.03;;;4.13;;
6412;SDS011;3239;48.714;9.472;2023-04-07T11:49:23;4.97;;;2.93;;
6412;SDS011;3239;48.714;9.472;2023-04-07T11:52:00;5.20;;;4.17;;
6412;SDS011;3239;48.714;9.472;2023-04-07T11:57:24;4.10;;;3.60;;
6412;SDS011;3239;48.714;9.472;2023-04-07T12:00:05;4.17;;;3.10;;
6412;SDS011;3239;48.714;9.472;2023-04-07T12:02:35;5.00;;;2.90;;
6412;SDS011;3239;48.714;9.472;2023-04-07T12:05:01;6.03;;;3.37;;
6412;SDS011;3239;48.714;9.472;2023-04-07T12:07:28;5.80;;;2.83;;
6412;SDS011;3239;48.714;9.472;2023-04-07T12:09:54;5.03;;;2.90;;
6412;SDS011;3239;48.714;9.472;2023-04-07T12:12:24;4.00;;;3.07;;
6412;SDS011;3239;48.714;9.472;2023-04-07T12:14:52;6.23;;;3.07;;
6412;SDS011;3239;48.714;9.472;2023-04-07T12:17:20;5.03;;;3.13;;
6412;SDS011;3239;48.714;9.472;2023-04-07T12:19:45;5.20;;;2.47;;
6412;SDS011;3239;48.714;9.472;2023-04-07T12:22:11;4.63;;;3.00;;
6412;SDS011;3239;48.714;9.472;2023-04-07T12:24:37;5.70;;;2.33;;
6412;SDS011;3239;48.714;9.472;2023-04-07T12:27:03;5.83;;;2.80;;
6412;SDS011;3239;48.714;9.472;2023-04-07T12:29:29;4.40;;;2.13;;
6412;SDS011;3239;48.714;9.472;2023-04-07T12:31:55;5.47;;;2.00;;
6412;SDS011;3239;48.714;9.472;2023-04-07T12:34:20;4.80;;;2.07;;
6412;SDS011;3239;48.714;9.472;2023-04-07T12:36:46;7.43;;;2.67;;
6412;SDS011;3239;48.714;9.472;2023-04-07T12:39:12;4.87;;;2.80;;
6412;SDS011;3239;48.714;9.472;2023-04-07T12:41:39;5.00;;;1.90;;
6412;SDS011;3239;48.714;9.472;2023-04-07T12:44:06;7.77;;;2.87;;
6412;SDS011;3239;48.714;9.472;2023-04-07T12:46:32;4.30;;;2.30;;
6412;SDS011;3239;48.714;9.472;2023-04-07T12:48:58;2.40;;;1.83;;
6412;SDS011;3239;48.714;9.472;2023-04-07T12:51:24;6.40;;;2.50;;
6412;SDS011;3239;48.714;9.472;2023-04-07T12:53:51;5.27;;;2.03;;
6412;SDS011;3239;48.714;9.472;2023-04-07T12:56:18;4.43;;;1.80;;
6412;SDS011;3239;48.714;9.472;2023-04-07T12:58:46;3.57;;;1.87;;
6412;SDS011;3239;48.714;9.472;2023-04-07T13:01:12;4.40;;;2.23;;
6412;SDS011;3239;48.714;9.472;2023-04-07T13:03:38;6.90;;;2.43;;
6412;SDS011;3239;48.714;9.472;2023-04-07T13:06:04;3.37;;;1.83;;
6412;SDS011;3239;48.714;9.472;2023-04-07T13:08:31;3.83;;;1.73;;
6412;SDS011;3239;48.714;9.472;2023-04-07T13:10:57;4.17;;;2.10;;
6412;SDS011;3239;48.714;9.472;2023-04-07T13:13:23;5.80;;;2.60;;
6412;SDS011;3239;48.714;9.472;2023-04-07T13:15:49;4.87;;;2.23;;
6412;SDS011;3239;48.714;9.472;2023-04-07T13:18:14;4.60;;;1.80;;
6412;SDS011;3239;48.714;9.472;2023-04-07T13:20:40;5.87;;;3.43;;
6412;SDS011;3239;48.714;9.472;2023-04-07T13:23:06;4.17;;;3.20;;
6412;SDS011;3239;48.714;9.472;2023-04-07T13:25:32;6.70;;;3.83;;
6412;SDS011;3239;48.714;9.472;2023-04-07T13:27:57;6.50;;;3.30;;
6412;SDS011;3239;48.714;9.472;2023-04-07T13:30:23;5.50;;;3.20;;
6412;SDS011;3239;48.714;9.472;2023-04-07T13:32:50;5.60;;;3.30;;
6412;SDS011;3239;48.714;9.472;2023-04-07T13:35:16;3.37;;;2.90;;
6412;SDS011;3239;48.714;9.472;2023-04-07T13:37:42;5.10;;;2.90;;
6412;SDS011;3239;48.714;9.472;2023-04-07T13:40:08;5.57;;;2.70;;
6412;SDS011;3239;48.714;9.472;2023-04-07T13:42:37;4.40;;;2.90;;
6412;SDS011;3239;48.714;9.472;2023-04-07T13:45:03;5.80;;;3.07;;
6412;SDS011;3239;48.714;9.472;2023-04-07T13:47:30;4.63;;;2.73;;
6412;SDS011;3239;48.714;9.472;2023-04-07T13:49:58;6.13;;;3.07;;
6412;SDS011;3239;48.714;9.472;2023-04-07T13:52:25;3.93;;;2.60;;
6412;SDS011;3239;48.714;9.472;2023-04-07T13:54:51;4.30;;;2.80;;
6412;SDS011;3239;48.714;9.472;2023-04-07T13:57:17;7.27;;;3.30;;
6412;SDS011;3239;48.714;9.472;2023-04-07T13:59:48;4.60;;;2.43;;
6412;SDS011;3239;48.714;9.472;2023-04-07T14:02:18;4.30;;;2.87;;
6412;SDS011;3239;48.714;9.472;2023-04-07T14:04:44;3.37;;;2.60;;
6412;SDS011;3239;48.714;9.472;2023-04-07T14:07:10;6.27;;;2.67;;
6412;SDS011;3239;48.714;9.472;2023-04-07T14:09:36;3.13;;;2.70;;
6412;SDS011;3239;48.714;9.472;2023-04-07T14:12:03;3.07;;;2.77;;
6412;SDS011;3239;48.714;9.472;2023-04-07T14:14:30;5.73;;;3.03;;
6412;SDS011;3239;48.714;9.472;2023-04-07T14:16:56;4.43;;;3.40;;
6412;SDS011;3239;48.714;9.472;2023-04-07T14:19:22;5.20;;;2.93;;
6412;SDS011;3239;48.714;9.472;2023-04-07T14:21:48;11.40;;;6.13;;
6412;SDS011;3239;48.714;9.472;2023-04-07T14:24:15;20.43;;;8.13;;
6412;SDS011;3239;48.714;9.472;2023-04-07T14:26:42;6.13;;;4.37;;
6412;SDS011;3239;48.714;9.472;2023-04-07T14:29:10;5.63;;;3.27;;
6412;SDS011;3239;48.714;9.472;2023-04-07T14:31:37;4.50;;;3.37;;
6412;SDS011;3239;48.714;9.472;2023-04-07T14:34:03;6.80;;;2.97;;
6412;SDS011;3239;48.714;9.472;2023-04-07T14:36:29;2.93;;;2.63;;
6412;SDS011;3239;48.714;9.472;2023-04-07T14:38:55;4.17;;;3.50;;
6412;SDS011;3239;48.714;9.472;2023-04-07T14:41:22;4.40;;;3.03;;
6412;SDS011;3239;48.714;9.472;2023-04-07T14:43:49;3.43;;;2.50;;
6412;SDS011;3239;48.714;9.472;2023-04-07T14:46:20;4.23;;;2.63;;
6412;SDS011;3239;48.714;9.472;2023-04-07T14:48:50;5.10;;;2.83;;
6412;SDS011;3239;48.714;9.472;2023-04-07T14:51:16;4.47;;;2.87;;
6412;SDS011;3239;48.714;9.472;2023-04-07T14:53:42;4.93;;;2.93;;
6412;SDS011;3239;48.714;9.472;2023-04-07T14:56:09;3.00;;;2.40;;
6412;SDS011;3239;48.714;9.472;2023-04-07T14:58:36;4.53;;;2.60;;
6412;SDS011;3239;48.714;9.472;2023-04-07T15:01:03;3.27;;;2.60;;
6412;SDS011;3239;48.714;9.472;2023-04-07T15:03:30;5.07;;;2.40;;
6412;SDS011;3239;48.714;9.472;2023-04-07T15:05:55;5.37;;;2.23;;
6412;SDS011;3239;48.714;9.472;2023-04-07T15:08:22;3.60;;;2.43;;
6412;SDS011;3239;48.714;9.472;2023-04-07T15:10:47;3.07;;;1.97;;
6412;SDS011;3239;48.714;9.472;2023-04-07T15:13:13;7.20;;;2.30;;
6412;SDS011;3239;48.714;9.472;2023-04-07T15:15:39;5.40;;;2.70;;
6412;SDS011;3239;48.714;9.472;2023-04-07T15:18:05;5.20;;;2.37;;
6412;SDS011;3239;48.714;9.472;2023-04-07T15:20:30;5.17;;;2.47;;
6412;SDS011;3239;48.714;9.472;2023-04-07T15:22:56;5.47;;;2.63;;
6412;SDS011;3239;48.714;9.472;2023-04-07T15:25:24;4.03;;;2.40;;
6412;SDS011;3239;48.714;9.472;2023-04-07T15:27:50;4.00;;;2.20;;
6412;SDS011;3239;48.714;9.472;2023-04-07T15:30:16;6.33;;;2.80;;
6412;SDS011;3239;48.714;9.472;2023-04-07T15:32:54;4.60;;;2.20;;
6412;SDS011;3239;48.714;9.472;2023-04-07T15:35:22;2.50;;;2.27;;